This is the latest recevied weather packets stored in our database for station/object OE2SWM. If no packets are shown the sender has not sent any weather packets the latest 10 day(s).
| Time | Temp. | Humidity | Pressure | Rain* | Wind** | Luminosity | Snow |
|---|---|---|---|---|---|---|---|
| 1777511400 | 0.56° C | 83% | 977 hPa | 0 mm | - | - | - |
| 1777510200 | 0.56° C | 79% | 977 hPa | 0 mm | - | - | - |
| 1777509000 | 2.78° C | 73% | 976 hPa | 0 mm | - | - | - |
| 1777508400 | 2.78° C | 73% | 977 hPa | 0 mm | - | - | - |
| 1777507800 | 2.78° C | 73% | 976 hPa | 0 mm | - | - | - |
| 1777498200 | 2.78° C | 79% | 975 hPa | 0 mm | - | - | - |
| 1777497000 | 2.78° C | 77% | 975 hPa | 0 mm | - | - | - |
| 1777491000 | 6.67° C | 60% | 975 hPa | 0 mm | - | - | - |
| 1777489200 | 8.89° C | 61% | 974 hPa | 0 mm | - | - | - |
| 1777486200 | 10° C | 63% | 974 hPa | 0 mm | - | - | - |
| 1777482600 | 11.67° C | 62% | 973 hPa | 0 mm | - | - | - |
| 1777480200 | 11.67° C | 63% | 973 hPa | 0 mm | - | - | - |
| 1777473000 | 12.78° C | 66% | 972 hPa | 0 mm | - | - | - |
| 1777471800 | 11.67° C | 70% | 972 hPa | 0 mm | - | - | - |
| 1777468800 | 11.67° C | 71% | 972 hPa | 0 mm | - | - | - |
| 1777465800 | 12.78° C | 70% | 972 hPa | 0 mm | - | - | - |
| 1777465200 | 12.78° C | 70% | 972 hPa | 0 mm | - | - | - |
| 1777464600 | 12.78° C | 70% | 972 hPa | 0 mm | - | - | - |
| 1777462800 | 12.78° C | 70% | 972 hPa | 0 mm | - | - | - |
| 1777462200 | 12.78° C | 70% | 972 hPa | 0 mm | - | - | - |
| 1777461600 | 12.78° C | 70% | 972 hPa | 0 mm | - | - | - |
| 1777461000 | 12.78° C | 71% | 972 hPa | 0 mm | - | - | - |
| 1777460400 | 12.78° C | 72% | 972 hPa | 0 mm | - | - | - |
| 1777459200 | 12.78° C | 73% | 972 hPa | 0 mm | - | - | - |
| 1777458000 | 11.67° C | 74% | 972 hPa | 0 mm | - | - | - |
* Rain latest hour (hover to see other rain measurements)
** Current wind speed in m/s (hover to see current wind gust speed)